sensor_id;sensor_type;location;lat;lon;timestamp;pressure;altitude;pressure_sealevel;temperature;humidity
62708;BME280;48769;51.624;5.886;2023-07-09T00:01:17;101567.84;;;24.00;100.00
62708;BME280;48769;51.624;5.886;2023-07-09T00:03:46;101565.97;;;24.01;100.00
62708;BME280;48769;51.624;5.886;2023-07-09T00:06:16;101570.41;;;24.02;100.00
62708;BME280;48769;51.624;5.886;2023-07-09T00:08:43;101571.38;;;24.01;100.00
62708;BME280;48769;51.624;5.886;2023-07-09T00:11:11;101570.72;;;23.89;100.00
62708;BME280;48769;51.624;5.886;2023-07-09T00:13:36;101573.28;;;23.91;100.00
62708;BME280;48769;51.624;5.886;2023-07-09T00:16:11;101564.06;;;23.84;100.00
62708;BME280;48769;51.624;5.886;2023-07-09T00:18:36;101574.03;;;23.83;100.00
62708;BME280;48769;51.624;5.886;2023-07-09T00:21:02;101568.63;;;23.83;100.00
62708;BME280;48769;51.624;5.886;2023-07-09T00:23:27;101571.16;;;23.85;100.00
62708;BME280;48769;51.624;5.886;2023-07-09T00:25:53;101564.38;;;23.81;100.00
62708;BME280;48769;51.624;5.886;2023-07-09T00:28:19;101571.44;;;23.82;100.00
62708;BME280;48769;51.624;5.886;2023-07-09T00:30:45;101569.47;;;23.84;100.00
62708;BME280;48769;51.624;5.886;2023-07-09T00:33:12;101571.16;;;23.85;100.00
62708;BME280;48769;51.624;5.886;2023-07-09T00:35:42;101577.16;;;23.78;100.00
62708;BME280;48769;51.624;5.886;2023-07-09T00:38:19;101570.34;;;23.74;100.00
62708;BME280;48769;51.624;5.886;2023-07-09T00:41:15;101571.91;;;23.77;100.00
62708;BME280;48769;51.624;5.886;2023-07-09T00:43:43;101570.22;;;23.76;100.00
62708;BME280;48769;51.624;5.886;2023-07-09T00:48:53;101564.41;;;23.71;100.00
62708;BME280;48769;51.624;5.886;2023-07-09T00:51:23;101566.97;;;23.63;100.00
62708;BME280;48769;51.624;5.886;2023-07-09T00:53:52;101567.56;;;23.56;100.00
62708;BME280;48769;51.624;5.886;2023-07-09T00:56:29;101561.28;;;23.56;100.00
62708;BME280;48769;51.624;5.886;2023-07-09T00:58:58;101551.66;;;23.53;100.00
62708;BME280;48769;51.624;5.886;2023-07-09T01:01:26;101557.63;;;23.47;100.00
62708;BME280;48769;51.624;5.886;2023-07-09T01:03:54;101552.53;;;23.44;100.00
62708;BME280;48769;51.624;5.886;2023-07-09T01:06:30;101557.22;;;23.42;100.00
62708;BME280;48769;51.624;5.886;2023-07-09T01:08:58;101563.88;;;23.38;100.00
62708;BME280;48769;51.624;5.886;2023-07-09T01:11:25;101553.13;;;23.28;100.00
62708;BME280;48769;51.624;5.886;2023-07-09T01:13:54;101558.78;;;23.35;100.00
62708;BME280;48769;51.624;5.886;2023-07-09T01:16:22;101553.22;;;23.37;100.00
62708;BME280;48769;51.624;5.886;2023-07-09T01:18:51;101548.28;;;23.32;100.00
62708;BME280;48769;51.624;5.886;2023-07-09T01:21:17;101554.53;;;23.23;100.00
62708;BME280;48769;51.624;5.886;2023-07-09T01:23:44;101555.84;;;23.19;100.00
62708;BME280;48769;51.624;5.886;2023-07-09T01:26:11;101553.44;;;23.16;100.00
62708;BME280;48769;51.624;5.886;2023-07-09T01:28:37;101551.72;;;23.15;100.00
62708;BME280;48769;51.624;5.886;2023-07-09T01:31:03;101554.28;;;23.16;100.00
62708;BME280;48769;51.624;5.886;2023-07-09T01:33:30;101559.09;;;23.13;100.00
62708;BME280;48769;51.624;5.886;2023-07-09T01:35:55;101563.09;;;23.08;100.00
62708;BME280;48769;51.624;5.886;2023-07-09T01:38:26;101550.31;;;23.01;100.00
62708;BME280;48769;51.624;5.886;2023-07-09T01:40:56;101556.53;;;22.92;100.00
62708;BME280;48769;51.624;5.886;2023-07-09T01:43:21;101553.00;;;22.91;100.00
62708;BME280;48769;51.624;5.886;2023-07-09T01:45:47;101561.09;;;22.91;100.00
62708;BME280;48769;51.624;5.886;2023-07-09T01:48:15;101562.22;;;22.89;100.00
62708;BME280;48769;51.624;5.886;2023-07-09T01:50:41;101567.88;;;22.85;100.00
62708;BME280;48769;51.624;5.886;2023-07-09T01:53:10;101571.41;;;22.86;100.00
62708;BME280;48769;51.624;5.886;2023-07-09T01:55:36;101575.81;;;22.87;100.00
62708;BME280;48769;51.624;5.886;2023-07-09T01:58:01;101572.13;;;22.88;100.00
62708;BME280;48769;51.624;5.886;2023-07-09T02:00:32;101575.81;;;22.87;100.00
62708;BME280;48769;51.624;5.886;2023-07-09T02:02:58;101571.41;;;22.86;100.00
62708;BME280;48769;51.624;5.886;2023-07-09T02:05:25;101580.50;;;22.85;100.00
62708;BME280;48769;51.624;5.886;2023-07-09T02:07:51;101573.84;;;22.79;100.00
62708;BME280;48769;51.624;5.886;2023-07-09T02:10:17;101570.41;;;22.77;100.00
62708;BME280;48769;51.624;5.886;2023-07-09T02:12:43;101578.66;;;22.76;100.00
62708;BME280;48769;51.624;5.886;2023-07-09T02:15:09;101575.50;;;22.71;100.00
62708;BME280;48769;51.624;5.886;2023-07-09T02:17:34;101577.34;;;22.70;100.00
62708;BME280;48769;51.624;5.886;2023-07-09T02:20:00;101580.91;;;22.71;100.00
62708;BME280;48769;51.624;5.886;2023-07-09T02:22:25;101580.91;;;22.71;100.00
62708;BME280;48769;51.624;5.886;2023-07-09T02:24:50;101573.81;;;22.70;100.00
62708;BME280;48769;51.624;5.886;2023-07-09T02:27:19;101580.22;;;22.69;100.00
62708;BME280;48769;51.624;5.886;2023-07-09T02:29:45;101578.06;;;22.62;100.00
62708;BME280;48769;51.624;5.886;2023-07-09T02:32:17;101573.09;;;22.58;100.00
62708;BME280;48769;51.624;5.886;2023-07-09T02:34:43;101577.63;;;22.57;100.00
62708;BME280;48769;51.624;5.886;2023-07-09T02:37:08;101582.28;;;22.55;100.00
62708;BME280;48769;51.624;5.886;2023-07-09T02:39:33;101580.88;;;22.51;100.00
62708;BME280;48769;51.624;5.886;2023-07-09T02:41:58;101579.44;;;22.47;100.00
62708;BME280;48769;51.624;5.886;2023-07-09T02:44:24;101582.41;;;22.44;100.00
62708;BME280;48769;51.624;5.886;2023-07-09T02:46:49;101584.38;;;22.42;100.00
62708;BME280;48769;51.624;5.886;2023-07-09T02:49:15;101579.00;;;22.42;100.00
62708;BME280;48769;51.624;5.886;2023-07-09T02:51:40;101586.50;;;22.38;100.00
62708;BME280;48769;51.624;5.886;2023-07-09T02:54:06;101580.28;;;22.38;100.00
62708;BME280;48769;51.624;5.886;2023-07-09T02:56:32;101589.34;;;22.37;100.00
62708;BME280;48769;51.624;5.886;2023-07-09T02:58:58;101584.25;;;22.34;100.00
62708;BME280;48769;51.624;5.886;2023-07-09T03:01:24;101582.53;;;22.33;100.00
62708;BME280;48769;51.624;5.886;2023-07-09T03:03:55;101582.81;;;22.30;100.00
62708;BME280;48769;51.624;5.886;2023-07-09T03:06:21;101583.94;;;22.27;100.00
62708;BME280;48769;51.624;5.886;2023-07-09T03:08:47;101577.13;;;22.23;100.00
62708;BME280;48769;51.624;5.886;2023-07-09T03:11:14;101582.78;;;22.20;100.00
62708;BME280;48769;51.624;5.886;2023-07-09T03:13:40;101579.03;;;22.11;100.00
62708;BME280;48769;51.624;5.886;2023-07-09T03:16:05;101587.53;;;22.07;100.00
62708;BME280;48769;51.624;5.886;2023-07-09T03:18:31;101591.59;;;22.01;100.00
62708;BME280;48769;51.624;5.886;2023-07-09T03:20:57;101586.50;;;21.98;100.00
62708;BME280;48769;51.624;5.886;2023-07-09T03:23:22;101587.75;;;21.94;100.00
62708;BME280;48769;51.624;5.886;2023-07-09T03:25:47;101591.56;;;21.91;100.00
62708;BME280;48769;51.624;5.886;2023-07-09T03:28:13;101585.88;;;21.85;100.00
62708;BME280;48769;51.624;5.886;2023-07-09T03:30:42;101596.16;;;21.80;100.00
62708;BME280;48769;51.624;5.886;2023-07-09T03:33:09;101593.03;;;21.75;100.00
62708;BME280;48769;51.624;5.886;2023-07-09T03:35:35;101590.47;;;21.73;100.00
62708;BME280;48769;51.624;5.886;2023-07-09T03:38:01;101594.28;;;21.70;100.00
62708;BME280;48769;51.624;5.886;2023-07-09T03:40:26;101589.16;;;21.67;100.00
62708;BME280;48769;51.624;5.886;2023-07-09T03:42:52;101579.41;;;21.66;100.00
62708;BME280;48769;51.624;5.886;2023-07-09T03:45:17;101587.47;;;21.66;100.00
62708;BME280;48769;51.624;5.886;2023-07-09T03:47:42;101588.19;;;21.68;100.00
62708;BME280;48769;51.624;5.886;2023-07-09T03:50:08;101586.19;;;21.70;100.00
62708;BME280;48769;51.624;5.886;2023-07-09T03:52:34;101589.88;;;21.69;100.00
62708;BME280;48769;51.624;5.886;2023-07-09T03:55:01;101586.19;;;21.70;100.00
62708;BME280;48769;51.624;5.886;2023-07-09T03:57:28;101587.19;;;21.69;100.00
62708;BME280;48769;51.624;5.886;2023-07-09T03:59:53;101587.59;;;21.65;100.00
62708;BME280;48769;51.624;5.886;2023-07-09T04:02:19;101588.72;;;21.62;100.00
62708;BME280;48769;51.624;5.886;2023-07-09T04:04:44;101596.19;;;21.59;100.00
62708;BME280;48769;51.624;5.886;2023-07-09T04:07:09;101597.00;;;21.50;100.00
62708;BME280;48769;51.624;5.886;2023-07-09T04:09:35;101589.50;;;21.53;100.00
62708;BME280;48769;51.624;5.886;2023-07-09T04:12:00;101593.38;;;21.39;100.00
62708;BME280;48769;51.624;5.886;2023-07-09T04:14:28;101598.19;;;21.36;100.00
62708;BME280;48769;51.624;5.886;2023-07-09T04:16:54;101601.31;;;21.41;100.00
62708;BME280;48769;51.624;5.886;2023-07-09T04:19:19;101602.16;;;21.41;100.00
62708;BME280;48769;51.624;5.886;2023-07-09T04:21:45;101599.09;;;21.46;100.00
62708;BME280;48769;51.624;5.886;2023-07-09T04:24:10;101596.00;;;21.51;100.00
62708;BME280;48769;51.624;5.886;2023-07-09T04:26:35;101592.66;;;21.58;100.00
62708;BME280;48769;51.624;5.886;2023-07-09T04:29:05;101593.84;;;21.65;100.00
62708;BME280;48769;51.624;5.886;2023-07-09T04:31:31;101600.06;;;21.66;100.00
62708;BME280;48769;51.624;5.886;2023-07-09T04:33:57;101593.31;;;21.72;100.00
62708;BME280;48769;51.624;5.886;2023-07-09T04:36:22;101592.78;;;21.78;100.00
62708;BME280;48769;51.624;5.886;2023-07-09T04:38:47;101593.22;;;21.83;100.00
62708;BME280;48769;51.624;5.886;2023-07-09T04:41:13;101589.97;;;21.89;100.00
62708;BME280;48769;51.624;5.886;2023-07-09T04:43:38;101594.94;;;21.93;100.00
62708;BME280;48769;51.624;5.886;2023-07-09T04:46:03;101590.88;;;21.99;100.00
62708;BME280;48769;51.624;5.886;2023-07-09T04:48:29;101597.97;;;22.00;100.00
62708;BME280;48769;51.624;5.886;2023-07-09T04:50:54;101594.03;;;22.04;100.00
62708;BME280;48769;51.624;5.886;2023-07-09T04:53:19;101592.50;;;22.11;100.00
62708;BME280;48769;51.624;5.886;2023-07-09T04:55:45;101599.34;;;22.15;100.00
62708;BME280;48769;51.624;5.886;2023-07-09T04:58:10;101606.13;;;22.20;100.00
62708;BME280;48769;51.624;5.886;2023-07-09T05:00:35;101592.13;;;22.26;100.00
62708;BME280;48769;51.624;5.886;2023-07-09T05:03:01;101598.13;;;22.39;100.00
62708;BME280;48769;51.624;5.886;2023-07-09T05:05:26;101606.69;;;22.63;100.00
62708;BME280;48769;51.624;5.886;2023-07-09T05:07:51;101602.47;;;22.90;100.00
62708;BME280;48769;51.624;5.886;2023-07-09T05:10:17;101601.94;;;23.16;100.00
62708;BME280;48769;51.624;5.886;2023-07-09T05:12:48;101601.63;;;23.38;100.00
62708;BME280;48769;51.624;5.886;2023-07-09T05:15:13;101604.00;;;23.61;100.00
62708;BME280;48769;51.624;5.886;2023-07-09T05:17:39;101603.53;;;23.85;100.00
62708;BME280;48769;51.624;5.886;2023-07-09T05:20:04;101606.03;;;24.06;100.00
62708;BME280;48769;51.624;5.886;2023-07-09T05:22:30;101595.81;;;24.27;100.00
62708;BME280;48769;51.624;5.886;2023-07-09T05:24:56;101603.84;;;24.46;100.00
62708;BME280;48769;51.624;5.886;2023-07-09T05:27:21;101603.72;;;24.66;100.00
62708;BME280;48769;51.624;5.886;2023-07-09T05:29:46;101600.34;;;24.82;100.00
62708;BME280;48769;51.624;5.886;2023-07-09T05:32:12;101600.13;;;24.93;100.00
62708;BME280;48769;51.624;5.886;2023-07-09T05:34:37;101588.41;;;25.20;100.00
62708;BME280;48769;51.624;5.886;2023-07-09T05:37:02;101587.19;;;25.40;99.67
62708;BME280;48769;51.624;5.886;2023-07-09T05:39:28;101594.88;;;25.71;97.52
62708;BME280;48769;51.624;5.886;2023-07-09T05:41:53;101597.06;;;25.94;95.00
62708;BME280;48769;51.624;5.886;2023-07-09T05:44:18;101595.91;;;26.04;92.44
62708;BME280;48769;51.624;5.886;2023-07-09T05:46:44;101593.00;;;25.98;91.31
62708;BME280;48769;51.624;5.886;2023-07-09T05:49:10;101593.22;;;26.04;93.99
62708;BME280;48769;51.624;5.886;2023-07-09T05:51:35;101593.03;;;26.06;90.51
62708;BME280;48769;51.624;5.886;2023-07-09T05:54:00;101594.03;;;26.39;89.56
62708;BME280;48769;51.624;5.886;2023-07-09T05:56:26;101594.63;;;26.59;88.41
62708;BME280;48769;51.624;5.886;2023-07-09T05:58:51;101592.59;;;26.77;86.72
62708;BME280;48769;51.624;5.886;2023-07-09T06:01:17;101591.00;;;27.17;84.68
62708;BME280;48769;51.624;5.886;2023-07-09T06:03:43;101591.84;;;27.34;81.77
62708;BME280;48769;51.624;5.886;2023-07-09T06:06:08;101593.66;;;27.58;80.77
62708;BME280;48769;51.624;5.886;2023-07-09T06:08:33;101586.50;;;27.82;79.76
62708;BME280;48769;51.624;5.886;2023-07-09T06:11:01;101585.94;;;27.94;77.36
62708;BME280;48769;51.624;5.886;2023-07-09T06:13:27;101588.09;;;28.07;76.59
62708;BME280;48769;51.624;5.886;2023-07-09T06:15:56;101585.19;;;28.17;78.03
62708;BME280;48769;51.624;5.886;2023-07-09T06:18:23;101594.78;;;28.36;77.28
62708;BME280;48769;51.624;5.886;2023-07-09T06:21:00;101597.56;;;28.59;75.33
62708;BME280;48769;51.624;5.886;2023-07-09T06:23:26;101596.47;;;28.76;76.37
62708;BME280;48769;51.624;5.886;2023-07-09T06:25:51;101594.06;;;29.04;75.29
62708;BME280;48769;51.624;5.886;2023-07-09T06:28:19;101594.38;;;29.09;72.53
62708;BME280;48769;51.624;5.886;2023-07-09T06:30:45;101593.56;;;29.01;70.59
62708;BME280;48769;51.624;5.886;2023-07-09T06:33:13;101595.00;;;29.11;70.53
62708;BME280;48769;51.624;5.886;2023-07-09T06:35:39;101603.56;;;29.46;70.97
62708;BME280;48769;51.624;5.886;2023-07-09T06:38:10;101600.16;;;29.44;69.24
62708;BME280;48769;51.624;5.886;2023-07-09T06:40:35;101600.03;;;29.61;68.68
62708;BME280;48769;51.624;5.886;2023-07-09T06:43:01;101603.72;;;29.97;67.43
62708;BME280;48769;51.624;5.886;2023-07-09T06:45:26;101604.66;;;29.90;66.44
62708;BME280;48769;51.624;5.886;2023-07-09T06:47:52;101601.56;;;29.78;67.77
62708;BME280;48769;51.624;5.886;2023-07-09T06:50:17;101593.47;;;30.14;66.94
62708;BME280;48769;51.624;5.886;2023-07-09T06:52:42;101599.03;;;30.57;65.43
62708;BME280;48769;51.624;5.886;2023-07-09T06:55:08;101602.75;;;30.86;65.25
62708;BME280;48769;51.624;5.886;2023-07-09T06:57:34;101594.94;;;30.83;63.66
62708;BME280;48769;51.624;5.886;2023-07-09T06:59:59;101592.81;;;30.78;63.76
62708;BME280;48769;51.624;5.886;2023-07-09T07:02:25;101597.75;;;31.11;63.45
62708;BME280;48769;51.624;5.886;2023-07-09T07:04:50;101591.09;;;31.20;61.76
62708;BME280;48769;51.624;5.886;2023-07-09T07:07:15;101592.41;;;31.24;61.13
62708;BME280;48769;51.624;5.886;2023-07-09T07:09:41;101596.16;;;31.45;59.91
62708;BME280;48769;51.624;5.886;2023-07-09T07:12:06;101590.38;;;31.61;60.40
62708;BME280;48769;51.624;5.886;2023-07-09T07:14:32;101592.06;;;31.62;59.34
62708;BME280;48769;51.624;5.886;2023-07-09T07:16:57;101586.25;;;32.06;58.77
62708;BME280;48769;51.624;5.886;2023-07-09T07:19:23;101591.47;;;32.43;58.53
62708;BME280;48769;51.624;5.886;2023-07-09T07:21:48;101577.44;;;32.59;57.98
62708;BME280;48769;51.624;5.886;2023-07-09T07:24:14;101575.06;;;32.43;58.24
62708;BME280;48769;51.624;5.886;2023-07-09T07:26:39;101575.59;;;32.86;57.53
62708;BME280;48769;51.624;5.886;2023-07-09T07:29:04;101581.31;;;33.31;57.39
62708;BME280;48769;51.624;5.886;2023-07-09T07:31:29;101567.16;;;33.47;55.69
62708;BME280;48769;51.624;5.886;2023-07-09T07:33:55;101570.06;;;33.86;55.43
62708;BME280;48769;51.624;5.886;2023-07-09T07:36:20;101565.84;;;33.83;52.98
62708;BME280;48769;51.624;5.886;2023-07-09T07:38:45;101576.59;;;33.91;53.43
62708;BME280;48769;51.624;5.886;2023-07-09T07:41:11;101566.00;;;34.08;53.57
62708;BME280;48769;51.624;5.886;2023-07-09T07:43:37;101576.00;;;33.69;54.57
62708;BME280;48769;51.624;5.886;2023-07-09T07:46:02;101573.22;;;33.83;54.79
62708;BME280;48769;51.624;5.886;2023-07-09T07:48:27;101558.34;;;33.59;53.43
62708;BME280;48769;51.624;5.886;2023-07-09T07:51:01;101568.25;;;33.00;54.72
62708;BME280;48769;51.624;5.886;2023-07-09T07:53:28;101570.94;;;32.73;56.64
62708;BME280;48769;51.624;5.886;2023-07-09T07:55:55;101573.78;;;32.39;56.74
62708;BME280;48769;51.624;5.886;2023-07-09T07:58:21;101575.44;;;32.33;58.73
62708;BME280;48769;51.624;5.886;2023-07-09T08:00:47;101570.59;;;32.28;58.16
62708;BME280;48769;51.624;5.886;2023-07-09T08:03:12;101566.75;;;32.16;57.94
62708;BME280;48769;51.624;5.886;2023-07-09T08:05:38;101570.91;;;32.05;59.94
62708;BME280;48769;51.624;5.886;2023-07-09T08:08:03;101577.28;;;31.84;59.74
62708;BME280;48769;51.624;5.886;2023-07-09T08:10:28;101575.66;;;31.62;61.08
62708;BME280;48769;51.624;5.886;2023-07-09T08:12:54;101585.13;;;31.59;61.28
62708;BME280;48769;51.624;5.886;2023-07-09T08:15:22;101585.56;;;31.63;62.08
62708;BME280;48769;51.624;5.886;2023-07-09T08:17:47;101584.13;;;31.67;63.69
62708;BME280;48769;51.624;5.886;2023-07-09T08:20:13;101578.66;;;31.67;62.28
62708;BME280;48769;51.624;5.886;2023-07-09T08:22:38;101576.31;;;31.64;60.34
62708;BME280;48769;51.624;5.886;2023-07-09T08:25:04;101567.34;;;31.70;60.26
62708;BME280;48769;51.624;5.886;2023-07-09T08:27:29;101571.03;;;31.56;59.48
62708;BME280;48769;51.624;5.886;2023-07-09T08:29:55;101575.41;;;31.50;59.55
62708;BME280;48769;51.624;5.886;2023-07-09T08:32:20;101574.66;;;31.63;61.60
62708;BME280;48769;51.624;5.886;2023-07-09T08:34:45;101578.03;;;31.72;59.47
62708;BME280;48769;51.624;5.886;2023-07-09T08:37:10;101581.66;;;31.44;61.78
62708;BME280;48769;51.624;5.886;2023-07-09T08:39:36;101573.91;;;31.26;58.96
62708;BME280;48769;51.624;5.886;2023-07-09T08:42:09;101570.03;;;31.35;58.71
62708;BME280;48769;51.624;5.886;2023-07-09T08:47:39;101561.78;;;31.57;58.85
62708;BME280;48769;51.624;5.886;2023-07-09T08:50:36;101556.88;;;31.46;56.50
62708;BME280;48769;51.624;5.886;2023-07-09T08:53:04;101561.56;;;31.58;59.89
62708;BME280;48769;51.624;5.886;2023-07-09T08:55:31;101567.97;;;31.72;59.20
62708;BME280;48769;51.624;5.886;2023-07-09T08:58:10;101541.50;;;31.73;55.74
62708;BME280;48769;51.624;5.886;2023-07-09T09:00:47;101549.56;;;31.87;56.77
62708;BME280;48769;51.624;5.886;2023-07-09T09:06:12;101541.69;;;32.06;55.81
62708;BME280;48769;51.624;5.886;2023-07-09T09:08:53;101541.50;;;32.14;53.16
62708;BME280;48769;51.624;5.886;2023-07-09T09:11:43;101549.72;;;32.21;54.73
62708;BME280;48769;51.624;5.886;2023-07-09T09:16:44;101545.50;;;32.11;54.80
62708;BME280;48769;51.624;5.886;2023-07-09T09:19:25;101533.53;;;32.19;53.11
62708;BME280;48769;51.624;5.886;2023-07-09T09:21:58;101521.56;;;32.33;53.07
62708;BME280;48769;51.624;5.886;2023-07-09T09:24:33;101522.84;;;32.31;52.54
62708;BME280;48769;51.624;5.886;2023-07-09T09:27:00;101527.56;;;32.44;51.74
62708;BME280;48769;51.624;5.886;2023-07-09T09:29:26;101529.22;;;32.51;51.38
62708;BME280;48769;51.624;5.886;2023-07-09T09:31:54;101516.63;;;32.57;48.27
62708;BME280;48769;51.624;5.886;2023-07-09T09:34:26;101530.53;;;32.75;51.03
62708;BME280;48769;51.624;5.886;2023-07-09T09:37:09;101520.88;;;32.79;50.19
62708;BME280;48769;51.624;5.886;2023-07-09T09:39:38;101537.28;;;32.79;50.14
62708;BME280;48769;51.624;5.886;2023-07-09T09:42:10;101537.28;;;32.86;52.14
62708;BME280;48769;51.624;5.886;2023-07-09T09:44:39;101539.38;;;32.91;49.96
62708;BME280;48769;51.624;5.886;2023-07-09T09:47:10;101540.63;;;32.95;48.62
62708;BME280;48769;51.624;5.886;2023-07-09T09:49:42;101541.69;;;32.94;48.18
62708;BME280;48769;51.624;5.886;2023-07-09T09:52:13;101535.59;;;32.92;47.62
62708;BME280;48769;51.624;5.886;2023-07-09T09:54:41;101532.03;;;32.98;47.47
62708;BME280;48769;51.624;5.886;2023-07-09T09:57:18;101530.38;;;32.97;48.08
62708;BME280;48769;51.624;5.886;2023-07-09T09:59:46;101526.56;;;32.98;46.69
62708;BME280;48769;51.624;5.886;2023-07-09T10:02:19;101513.09;;;33.16;44.09
62708;BME280;48769;51.624;5.886;2023-07-09T10:04:45;101511.56;;;33.34;46.31
62708;BME280;48769;51.624;5.886;2023-07-09T10:09:52;101488.41;;;33.36;44.70
62708;BME280;48769;51.624;5.886;2023-07-09T10:12:29;101493.03;;;33.42;46.21
62708;BME280;48769;51.624;5.886;2023-07-09T10:15:21;101480.38;;;33.48;44.74
62708;BME280;48769;51.624;5.886;2023-07-09T10:18:02;101485.34;;;33.78;44.15
62708;BME280;48769;51.624;5.886;2023-07-09T10:20:41;101498.00;;;33.79;45.31
62708;BME280;48769;51.624;5.886;2023-07-09T10:23:28;101493.84;;;33.56;44.38
62708;BME280;48769;51.624;5.886;2023-07-09T10:26:19;101506.09;;;33.40;46.34
62708;BME280;48769;51.624;5.886;2023-07-09T10:31:33;101499.34;;;33.36;47.24
62708;BME280;48769;51.624;5.886;2023-07-09T10:34:25;101490.09;;;33.24;46.33
62708;BME280;48769;51.624;5.886;2023-07-09T10:39:36;101487.56;;;33.36;46.18
62708;BME280;48769;51.624;5.886;2023-07-09T10:42:04;101474.41;;;33.71;45.19
62708;BME280;48769;51.624;5.886;2023-07-09T10:44:39;101488.69;;;33.80;48.13
62708;BME280;48769;51.624;5.886;2023-07-09T10:47:10;101481.53;;;33.79;46.81
62708;BME280;48769;51.624;5.886;2023-07-09T10:49:42;101495.91;;;33.74;46.43
62708;BME280;48769;51.624;5.886;2023-07-09T10:55:15;101494.38;;;33.85;46.32
62708;BME280;48769;51.624;5.886;2023-07-09T10:57:47;101496.69;;;33.88;46.48
62708;BME280;48769;51.624;5.886;2023-07-09T11:00:22;101492.00;;;33.95;46.32
62708;BME280;48769;51.624;5.886;2023-07-09T11:03:04;101495.38;;;33.97;47.15
62708;BME280;48769;51.624;5.886;2023-07-09T11:05:30;101496.22;;;34.04;47.15
62708;BME280;48769;51.624;5.886;2023-07-09T11:08:06;101485.25;;;34.04;45.31
62708;BME280;48769;51.624;5.886;2023-07-09T11:10:40;101477.66;;;34.06;43.22
62708;BME280;48769;51.624;5.886;2023-07-09T11:13:17;101471.28;;;34.12;43.93
62708;BME280;48769;51.624;5.886;2023-07-09T11:15:47;101468.09;;;34.15;44.39
62708;BME280;48769;51.624;5.886;2023-07-09T11:18:33;101462.66;;;34.09;45.04
62708;BME280;48769;51.624;5.886;2023-07-09T11:21:15;101448.97;;;34.02;40.48
62708;BME280;48769;51.624;5.886;2023-07-09T11:23:54;101441.38;;;34.04;41.72
62708;BME280;48769;51.624;5.886;2023-07-09T11:26:31;101444.31;;;34.09;41.56
62708;BME280;48769;51.624;5.886;2023-07-09T11:31:35;101453.34;;;34.16;40.69
62708;BME280;48769;51.624;5.886;2023-07-09T11:36:33;101467.44;;;34.20;41.37
62708;BME280;48769;51.624;5.886;2023-07-09T11:39:16;101472.97;;;34.13;40.63
62708;BME280;48769;51.624;5.886;2023-07-09T11:41:45;101479.06;;;34.15;42.73
62708;BME280;48769;51.624;5.886;2023-07-09T11:49:27;101494.59;;;33.90;45.57
62708;BME280;48769;51.624;5.886;2023-07-09T11:52:02;101495.03;;;33.87;46.94
62708;BME280;48769;51.624;5.886;2023-07-09T11:54:34;101497.13;;;33.85;44.19
62708;BME280;48769;51.624;5.886;2023-07-09T11:57:01;101491.22;;;33.88;44.65
62708;BME280;48769;51.624;5.886;2023-07-09T11:59:28;101496.69;;;33.88;45.00
62708;BME280;48769;51.624;5.886;2023-07-09T12:01:53;101486.97;;;33.92;42.19
62708;BME280;48769;51.624;5.886;2023-07-09T12:04:25;101492.03;;;33.88;42.20
62708;BME280;48769;51.624;5.886;2023-07-09T12:06:57;101487.59;;;33.94;42.55
62708;BME280;48769;51.624;5.886;2023-07-09T12:09:24;101489.91;;;33.97;43.03
62708;BME280;48769;51.624;5.886;2023-07-09T12:11:50;101490.09;;;34.02;42.80
62708;BME280;48769;51.624;5.886;2023-07-09T12:14:18;101491.59;;;33.98;43.86
62708;BME280;48769;51.624;5.886;2023-07-09T12:16:46;101489.91;;;33.97;43.16
62708;BME280;48769;51.624;5.886;2023-07-09T12:19:14;101484.84;;;33.94;42.66
62708;BME280;48769;51.624;5.886;2023-07-09T12:21:43;101484.84;;;33.94;42.07
62708;BME280;48769;51.624;5.886;2023-07-09T12:24:19;101483.16;;;33.93;42.48
62708;BME280;48769;51.624;5.886;2023-07-09T12:26:52;101479.38;;;33.94;43.63
62708;BME280;48769;51.624;5.886;2023-07-09T12:29:18;101478.53;;;33.93;44.00
62708;BME280;48769;51.624;5.886;2023-07-09T12:31:43;101475.38;;;33.96;44.58
62708;BME280;48769;51.624;5.886;2023-07-09T12:34:13;101477.66;;;33.93;46.57
62708;BME280;48769;51.624;5.886;2023-07-09T12:36:45;101480.25;;;33.88;47.12
62708;BME280;48769;51.624;5.886;2023-07-09T12:39:12;101449.91;;;33.83;44.36
62708;BME280;48769;51.624;5.886;2023-07-09T12:41:43;101448.03;;;33.77;44.94
62708;BME280;48769;51.624;5.886;2023-07-09T12:44:20;101443.00;;;33.67;44.75
62708;BME280;48769;51.624;5.886;2023-07-09T12:46:47;101436.53;;;33.61;45.00
62708;BME280;48769;51.624;5.886;2023-07-09T12:49:25;101436.56;;;33.55;45.01
62708;BME280;48769;51.624;5.886;2023-07-09T12:51:51;101443.72;;;33.49;46.55
62708;BME280;48769;51.624;5.886;2023-07-09T12:54:20;101449.19;;;33.42;47.59
62708;BME280;48769;51.624;5.886;2023-07-09T12:56:56;101457.63;;;33.41;48.89
62708;BME280;48769;51.624;5.886;2023-07-09T12:59:25;101448.16;;;33.37;48.47
62708;BME280;48769;51.624;5.886;2023-07-09T13:02:02;101450.91;;;33.37;49.66
62708;BME280;48769;51.624;5.886;2023-07-09T13:04:37;101457.63;;;33.34;50.82
62708;BME280;48769;51.624;5.886;2023-07-09T13:07:03;101448.59;;;33.27;48.13
62708;BME280;48769;51.624;5.886;2023-07-09T13:09:29;101448.84;;;33.25;49.76
62708;BME280;48769;51.624;5.886;2023-07-09T13:11:55;101450.94;;;33.23;51.99
62708;BME280;48769;51.624;5.886;2023-07-09T13:14:24;101451.34;;;33.20;50.65
62708;BME280;48769;51.624;5.886;2023-07-09T13:16:51;101439.59;;;33.13;49.04
62708;BME280;48769;51.624;5.886;2023-07-09T13:19:17;101441.50;;;33.06;49.25
62708;BME280;48769;51.624;5.886;2023-07-09T13:21:44;101443.41;;;32.99;50.82
62708;BME280;48769;51.624;5.886;2023-07-09T13:24:14;101455.19;;;32.93;53.77